sensor_id;sensor_type;location;lat;lon;timestamp;P1;durP1;ratioP1;P2;durP2;ratioP2
80584;SDS011;70137;56.482;9.154;2024-01-30T00:00:36;87.55;;;20.30;;
80584;SDS011;70137;56.482;9.154;2024-01-30T00:03:01;97.07;;;19.67;;
80584;SDS011;70137;56.482;9.154;2024-01-30T00:05:27;105.97;;;21.25;;
80584;SDS011;70137;56.482;9.154;2024-01-30T00:07:52;101.75;;;19.33;;
80584;SDS011;70137;56.482;9.154;2024-01-30T00:10:17;126.80;;;19.40;;
80584;SDS011;70137;56.482;9.154;2024-01-30T00:12:43;161.27;;;19.70;;
80584;SDS011;70137;56.482;9.154;2024-01-30T00:15:08;134.23;;;18.80;;
80584;SDS011;70137;56.482;9.154;2024-01-30T00:17:35;133.57;;;20.23;;
80584;SDS011;70137;56.482;9.154;2024-01-30T00:20:03;220.55;;;19.98;;
80584;SDS011;70137;56.482;9.154;2024-01-30T00:22:31;196.10;;;18.52;;
80584;SDS011;70137;56.482;9.154;2024-01-30T00:24:56;107.93;;;18.67;;
80584;SDS011;70137;56.482;9.154;2024-01-30T00:27:22;116.70;;;17.95;;
80584;SDS011;70137;56.482;9.154;2024-01-30T00:29:47;144.65;;;19.65;;
80584;SDS011;70137;56.482;9.154;2024-01-30T00:32:12;94.28;;;17.00;;
80584;SDS011;70137;56.482;9.154;2024-01-30T00:34:38;114.15;;;17.33;;
80584;SDS011;70137;56.482;9.154;2024-01-30T00:37:03;203.40;;;18.50;;
80584;SDS011;70137;56.482;9.154;2024-01-30T00:39:29;128.23;;;18.52;;
80584;SDS011;70137;56.482;9.154;2024-01-30T00:41:54;257.17;;;20.60;;
80584;SDS011;70137;56.482;9.154;2024-01-30T00:44:19;109.93;;;17.30;;
80584;SDS011;70137;56.482;9.154;2024-01-30T00:46:45;122.93;;;18.17;;
80584;SDS011;70137;56.482;9.154;2024-01-30T00:49:10;120.78;;;19.25;;
80584;SDS011;70137;56.482;9.154;2024-01-30T00:51:36;127.75;;;18.00;;
80584;SDS011;70137;56.482;9.154;2024-01-30T00:54:01;231.10;;;19.52;;
80584;SDS011;70137;56.482;9.154;2024-01-30T00:56:27;222.43;;;18.80;;
80584;SDS011;70137;56.482;9.154;2024-01-30T00:58:53;158.32;;;18.25;;
80584;SDS011;70137;56.482;9.154;2024-01-30T01:01:18;235.02;;;20.77;;
80584;SDS011;70137;56.482;9.154;2024-01-30T01:03:44;188.13;;;17.65;;
80584;SDS011;70137;56.482;9.154;2024-01-30T01:06:09;170.23;;;16.48;;
80584;SDS011;70137;56.482;9.154;2024-01-30T01:08:35;131.55;;;16.83;;
80584;SDS011;70137;56.482;9.154;2024-01-30T01:11:01;313.80;;;20.05;;
80584;SDS011;70137;56.482;9.154;2024-01-30T01:13:26;206.43;;;17.38;;
80584;SDS011;70137;56.482;9.154;2024-01-30T01:15:51;78.90;;;14.50;;
80584;SDS011;70137;56.482;9.154;2024-01-30T01:18:17;76.45;;;14.88;;
80584;SDS011;70137;56.482;9.154;2024-01-30T01:20:42;100.43;;;16.13;;
80584;SDS011;70137;56.482;9.154;2024-01-30T01:23:07;66.90;;;14.25;;
80584;SDS011;70137;56.482;9.154;2024-01-30T01:25:33;75.32;;;15.60;;
80584;SDS011;70137;56.482;9.154;2024-01-30T01:27:58;127.57;;;16.60;;
80584;SDS011;70137;56.482;9.154;2024-01-30T01:30:26;73.43;;;15.35;;
80584;SDS011;70137;56.482;9.154;2024-01-30T01:32:51;65.43;;;14.35;;
80584;SDS011;70137;56.482;9.154;2024-01-30T01:35:20;76.95;;;14.60;;
80584;SDS011;70137;56.482;9.154;2024-01-30T01:37:47;67.40;;;14.25;;
80584;SDS011;70137;56.482;9.154;2024-01-30T01:40:19;91.68;;;15.50;;
80584;SDS011;70137;56.482;9.154;2024-01-30T01:42:45;68.95;;;14.55;;
80584;SDS011;70137;56.482;9.154;2024-01-30T01:45:10;76.75;;;14.73;;
80584;SDS011;70137;56.482;9.154;2024-01-30T01:47:35;131.20;;;16.25;;
80584;SDS011;70137;56.482;9.154;2024-01-30T01:50:01;245.57;;;18.73;;
80584;SDS011;70137;56.482;9.154;2024-01-30T01:52:27;136.90;;;17.30;;
80584;SDS011;70137;56.482;9.154;2024-01-30T01:54:53;123.20;;;15.93;;
80584;SDS011;70137;56.482;9.154;2024-01-30T01:57:18;174.23;;;16.90;;
80584;SDS011;70137;56.482;9.154;2024-01-30T01:59:44;77.90;;;13.73;;
80584;SDS011;70137;56.482;9.154;2024-01-30T02:02:10;79.20;;;14.02;;
80584;SDS011;70137;56.482;9.154;2024-01-30T02:04:37;131.05;;;15.10;;
80584;SDS011;70137;56.482;9.154;2024-01-30T02:07:03;92.72;;;14.32;;
80584;SDS011;70137;56.482;9.154;2024-01-30T02:09:28;114.72;;;14.82;;
80584;SDS011;70137;56.482;9.154;2024-01-30T02:11:53;118.00;;;13.80;;
80584;SDS011;70137;56.482;9.154;2024-01-30T02:14:20;139.60;;;16.48;;
80584;SDS011;70137;56.482;9.154;2024-01-30T02:16:45;107.68;;;14.77;;
80584;SDS011;70137;56.482;9.154;2024-01-30T02:19:10;147.48;;;14.73;;
80584;SDS011;70137;56.482;9.154;2024-01-30T02:21:36;107.20;;;15.63;;
80584;SDS011;70137;56.482;9.154;2024-01-30T02:24:01;121.25;;;15.85;;
80584;SDS011;70137;56.482;9.154;2024-01-30T02:26:28;177.70;;;17.92;;
80584;SDS011;70137;56.482;9.154;2024-01-30T02:28:53;115.95;;;16.58;;
80584;SDS011;70137;56.482;9.154;2024-01-30T02:31:19;87.10;;;14.98;;
80584;SDS011;70137;56.482;9.154;2024-01-30T02:33:44;126.10;;;16.52;;
80584;SDS011;70137;56.482;9.154;2024-01-30T02:36:09;110.53;;;15.35;;
80584;SDS011;70137;56.482;9.154;2024-01-30T02:38:35;161.32;;;16.77;;
80584;SDS011;70137;56.482;9.154;2024-01-30T02:41:00;87.80;;;15.07;;
80584;SDS011;70137;56.482;9.154;2024-01-30T02:43:25;69.38;;;13.93;;
80584;SDS011;70137;56.482;9.154;2024-01-30T02:45:52;187.20;;;16.88;;
80584;SDS011;70137;56.482;9.154;2024-01-30T02:48:17;260.63;;;17.23;;
80584;SDS011;70137;56.482;9.154;2024-01-30T02:50:43;166.52;;;17.45;;
80584;SDS011;70137;56.482;9.154;2024-01-30T02:53:08;74.43;;;15.32;;
80584;SDS011;70137;56.482;9.154;2024-01-30T02:55:33;123.90;;;16.73;;
80584;SDS011;70137;56.482;9.154;2024-01-30T02:57:59;60.78;;;14.75;;
80584;SDS011;70137;56.482;9.154;2024-01-30T03:00:24;112.82;;;16.50;;
80584;SDS011;70137;56.482;9.154;2024-01-30T03:02:49;114.45;;;15.50;;
80584;SDS011;70137;56.482;9.154;2024-01-30T03:05:15;69.18;;;14.13;;
80584;SDS011;70137;56.482;9.154;2024-01-30T03:07:40;92.53;;;15.98;;
80584;SDS011;70137;56.482;9.154;2024-01-30T03:10:05;69.43;;;15.13;;
80584;SDS011;70137;56.482;9.154;2024-01-30T03:12:31;68.47;;;14.38;;
80584;SDS011;70137;56.482;9.154;2024-01-30T03:14:57;64.07;;;14.55;;
80584;SDS011;70137;56.482;9.154;2024-01-30T03:17:22;74.72;;;14.65;;
80584;SDS011;70137;56.482;9.154;2024-01-30T03:19:49;80.30;;;14.93;;
80584;SDS011;70137;56.482;9.154;2024-01-30T03:22:14;64.38;;;14.50;;
80584;SDS011;70137;56.482;9.154;2024-01-30T03:24:39;58.22;;;13.98;;
80584;SDS011;70137;56.482;9.154;2024-01-30T03:27:05;76.20;;;14.13;;
80584;SDS011;70137;56.482;9.154;2024-01-30T03:29:30;92.43;;;15.27;;
80584;SDS011;70137;56.482;9.154;2024-01-30T03:31:55;68.85;;;13.65;;
80584;SDS011;70137;56.482;9.154;2024-01-30T03:34:21;79.32;;;15.00;;
80584;SDS011;70137;56.482;9.154;2024-01-30T03:36:46;77.90;;;13.88;;
80584;SDS011;70137;56.482;9.154;2024-01-30T03:39:11;60.50;;;13.15;;
80584;SDS011;70137;56.482;9.154;2024-01-30T03:41:37;49.10;;;13.23;;
80584;SDS011;70137;56.482;9.154;2024-01-30T03:44:02;57.45;;;12.90;;
80584;SDS011;70137;56.482;9.154;2024-01-30T03:46:28;77.20;;;15.13;;
80584;SDS011;70137;56.482;9.154;2024-01-30T03:48:53;70.35;;;14.07;;
80584;SDS011;70137;56.482;9.154;2024-01-30T03:51:18;67.78;;;13.57;;
80584;SDS011;70137;56.482;9.154;2024-01-30T03:53:44;59.40;;;14.30;;
80584;SDS011;70137;56.482;9.154;2024-01-30T03:56:11;74.35;;;15.25;;
80584;SDS011;70137;56.482;9.154;2024-01-30T03:58:38;59.22;;;13.25;;
80584;SDS011;70137;56.482;9.154;2024-01-30T04:01:03;63.38;;;14.57;;
80584;SDS011;70137;56.482;9.154;2024-01-30T04:03:28;52.00;;;13.73;;
80584;SDS011;70137;56.482;9.154;2024-01-30T04:05:54;58.97;;;13.60;;
80584;SDS011;70137;56.482;9.154;2024-01-30T04:08:19;47.42;;;13.18;;
80584;SDS011;70137;56.482;9.154;2024-01-30T04:10:46;53.45;;;14.23;;
80584;SDS011;70137;56.482;9.154;2024-01-30T04:13:11;54.60;;;13.18;;
80584;SDS011;70137;56.482;9.154;2024-01-30T04:15:37;55.03;;;13.52;;
80584;SDS011;70137;56.482;9.154;2024-01-30T04:18:02;54.67;;;13.80;;
80584;SDS011;70137;56.482;9.154;2024-01-30T04:20:28;54.80;;;12.98;;
80584;SDS011;70137;56.482;9.154;2024-01-30T04:22:54;58.95;;;13.30;;
80584;SDS011;70137;56.482;9.154;2024-01-30T04:25:19;49.42;;;13.30;;
80584;SDS011;70137;56.482;9.154;2024-01-30T04:27:45;63.53;;;13.73;;
80584;SDS011;70137;56.482;9.154;2024-01-30T04:30:11;50.15;;;13.27;;
80584;SDS011;70137;56.482;9.154;2024-01-30T04:32:36;48.45;;;12.93;;
80584;SDS011;70137;56.482;9.154;2024-01-30T04:35:02;60.17;;;13.98;;
80584;SDS011;70137;56.482;9.154;2024-01-30T04:37:28;51.22;;;13.00;;
80584;SDS011;70137;56.482;9.154;2024-01-30T04:39:53;45.35;;;13.13;;
80584;SDS011;70137;56.482;9.154;2024-01-30T04:42:18;58.58;;;14.02;;
80584;SDS011;70137;56.482;9.154;2024-01-30T04:44:44;64.47;;;14.90;;
80584;SDS011;70137;56.482;9.154;2024-01-30T04:47:09;54.45;;;14.10;;
80584;SDS011;70137;56.482;9.154;2024-01-30T04:49:37;60.90;;;14.23;;
80584;SDS011;70137;56.482;9.154;2024-01-30T04:52:05;56.65;;;14.23;;
80584;SDS011;70137;56.482;9.154;2024-01-30T04:54:34;56.45;;;13.25;;
80584;SDS011;70137;56.482;9.154;2024-01-30T04:57:00;53.97;;;13.70;;
80584;SDS011;70137;56.482;9.154;2024-01-30T04:59:25;58.92;;;13.82;;
80584;SDS011;70137;56.482;9.154;2024-01-30T05:01:51;55.25;;;13.40;;
80584;SDS011;70137;56.482;9.154;2024-01-30T05:04:16;58.90;;;13.68;;
80584;SDS011;70137;56.482;9.154;2024-01-30T05:06:42;54.90;;;13.35;;
80584;SDS011;70137;56.482;9.154;2024-01-30T05:09:08;45.55;;;13.35;;
80584;SDS011;70137;56.482;9.154;2024-01-30T05:11:40;54.95;;;14.23;;
80584;SDS011;70137;56.482;9.154;2024-01-30T05:14:06;51.22;;;13.27;;
80584;SDS011;70137;56.482;9.154;2024-01-30T05:16:32;56.95;;;14.60;;
80584;SDS011;70137;56.482;9.154;2024-01-30T05:18:57;53.75;;;14.75;;
80584;SDS011;70137;56.482;9.154;2024-01-30T05:21:23;54.97;;;14.93;;
80584;SDS011;70137;56.482;9.154;2024-01-30T05:23:48;63.95;;;14.68;;
80584;SDS011;70137;56.482;9.154;2024-01-30T05:26:14;55.13;;;14.07;;
80584;SDS011;70137;56.482;9.154;2024-01-30T05:28:39;57.72;;;15.18;;
80584;SDS011;70137;56.482;9.154;2024-01-30T05:31:05;62.97;;;15.57;;
80584;SDS011;70137;56.482;9.154;2024-01-30T05:33:30;62.58;;;16.50;;
80584;SDS011;70137;56.482;9.154;2024-01-30T05:35:55;62.95;;;15.98;;
80584;SDS011;70137;56.482;9.154;2024-01-30T05:38:21;58.25;;;15.93;;
80584;SDS011;70137;56.482;9.154;2024-01-30T05:40:46;69.43;;;16.73;;
80584;SDS011;70137;56.482;9.154;2024-01-30T05:43:11;62.45;;;16.75;;
80584;SDS011;70137;56.482;9.154;2024-01-30T05:45:37;61.30;;;16.33;;
80584;SDS011;70137;56.482;9.154;2024-01-30T05:48:03;63.67;;;15.73;;
80584;SDS011;70137;56.482;9.154;2024-01-30T05:50:29;69.82;;;16.50;;
80584;SDS011;70137;56.482;9.154;2024-01-30T05:52:54;61.15;;;16.08;;
80584;SDS011;70137;56.482;9.154;2024-01-30T05:55:20;71.57;;;16.83;;
80584;SDS011;70137;56.482;9.154;2024-01-30T05:57:45;75.50;;;17.45;;
80584;SDS011;70137;56.482;9.154;2024-01-30T06:00:10;60.58;;;14.50;;
80584;SDS011;70137;56.482;9.154;2024-01-30T06:02:36;65.05;;;15.77;;
80584;SDS011;70137;56.482;9.154;2024-01-30T06:05:01;78.72;;;18.33;;
80584;SDS011;70137;56.482;9.154;2024-01-30T06:07:27;72.47;;;17.08;;
80584;SDS011;70137;56.482;9.154;2024-01-30T06:09:52;78.90;;;18.92;;
80584;SDS011;70137;56.482;9.154;2024-01-30T06:12:17;76.97;;;18.00;;
80584;SDS011;70137;56.482;9.154;2024-01-30T06:14:43;80.38;;;17.70;;
80584;SDS011;70137;56.482;9.154;2024-01-30T06:17:08;91.55;;;19.50;;
80584;SDS011;70137;56.482;9.154;2024-01-30T06:19:34;85.25;;;19.58;;
80584;SDS011;70137;56.482;9.154;2024-01-30T06:21:59;84.40;;;19.40;;
80584;SDS011;70137;56.482;9.154;2024-01-30T06:24:25;104.97;;;19.60;;
80584;SDS011;70137;56.482;9.154;2024-01-30T06:26:50;106.00;;;20.70;;
80584;SDS011;70137;56.482;9.154;2024-01-30T06:29:15;100.68;;;20.33;;
80584;SDS011;70137;56.482;9.154;2024-01-30T06:31:41;92.18;;;20.30;;
80584;SDS011;70137;56.482;9.154;2024-01-30T06:34:08;84.88;;;20.23;;
80584;SDS011;70137;56.482;9.154;2024-01-30T06:36:34;92.10;;;21.27;;
80584;SDS011;70137;56.482;9.154;2024-01-30T06:38:59;89.90;;;20.30;;
80584;SDS011;70137;56.482;9.154;2024-01-30T06:41:25;81.28;;;19.35;;
80584;SDS011;70137;56.482;9.154;2024-01-30T06:43:50;98.75;;;22.17;;
80584;SDS011;70137;56.482;9.154;2024-01-30T06:46:15;89.95;;;21.23;;
80584;SDS011;70137;56.482;9.154;2024-01-30T06:48:41;83.97;;;21.17;;
80584;SDS011;70137;56.482;9.154;2024-01-30T06:51:09;90.38;;;22.10;;
80584;SDS011;70137;56.482;9.154;2024-01-30T06:53:35;90.78;;;21.63;;
80584;SDS011;70137;56.482;9.154;2024-01-30T06:56:00;87.85;;;21.55;;
80584;SDS011;70137;56.482;9.154;2024-01-30T06:58:26;105.70;;;22.92;;
80584;SDS011;70137;56.482;9.154;2024-01-30T07:00:51;98.95;;;22.58;;
80584;SDS011;70137;56.482;9.154;2024-01-30T07:03:16;102.43;;;22.52;;
80584;SDS011;70137;56.482;9.154;2024-01-30T07:05:42;91.97;;;22.98;;
80584;SDS011;70137;56.482;9.154;2024-01-30T07:08:07;98.20;;;22.88;;
80584;SDS011;70137;56.482;9.154;2024-01-30T07:10:33;113.88;;;22.85;;
80584;SDS011;70137;56.482;9.154;2024-01-30T07:13:00;104.95;;;24.30;;
80584;SDS011;70137;56.482;9.154;2024-01-30T07:15:25;106.35;;;22.55;;
80584;SDS011;70137;56.482;9.154;2024-01-30T07:17:51;95.47;;;24.58;;
80584;SDS011;70137;56.482;9.154;2024-01-30T07:20:16;111.80;;;25.00;;
80584;SDS011;70137;56.482;9.154;2024-01-30T07:22:44;117.20;;;25.88;;
80584;SDS011;70137;56.482;9.154;2024-01-30T07:25:10;102.70;;;25.10;;
80584;SDS011;70137;56.482;9.154;2024-01-30T07:27:35;105.57;;;25.42;;
80584;SDS011;70137;56.482;9.154;2024-01-30T07:30:01;108.13;;;26.52;;
80584;SDS011;70137;56.482;9.154;2024-01-30T07:32:27;116.63;;;25.95;;
80584;SDS011;70137;56.482;9.154;2024-01-30T07:34:52;116.13;;;25.63;;
80584;SDS011;70137;56.482;9.154;2024-01-30T07:37:17;115.15;;;26.23;;
80584;SDS011;70137;56.482;9.154;2024-01-30T07:39:43;120.47;;;28.35;;
80584;SDS011;70137;56.482;9.154;2024-01-30T07:42:09;127.18;;;29.60;;
80584;SDS011;70137;56.482;9.154;2024-01-30T07:44:35;126.88;;;30.25;;
80584;SDS011;70137;56.482;9.154;2024-01-30T07:47:00;112.55;;;29.77;;
80584;SDS011;70137;56.482;9.154;2024-01-30T07:49:26;125.55;;;31.73;;
80584;SDS011;70137;56.482;9.154;2024-01-30T07:51:51;126.53;;;31.80;;
80584;SDS011;70137;56.482;9.154;2024-01-30T07:54:17;131.73;;;32.92;;
80584;SDS011;70137;56.482;9.154;2024-01-30T07:56:42;129.20;;;33.47;;
80584;SDS011;70137;56.482;9.154;2024-01-30T07:59:11;142.05;;;36.90;;
80584;SDS011;70137;56.482;9.154;2024-01-30T08:01:37;118.57;;;34.83;;
80584;SDS011;70137;56.482;9.154;2024-01-30T08:04:02;126.85;;;36.00;;
80584;SDS011;70137;56.482;9.154;2024-01-30T08:06:28;136.73;;;37.00;;
80584;SDS011;70137;56.482;9.154;2024-01-30T08:08:53;131.15;;;38.78;;
80584;SDS011;70137;56.482;9.154;2024-01-30T08:11:22;112.85;;;34.80;;
80584;SDS011;70137;56.482;9.154;2024-01-30T08:13:51;120.47;;;37.55;;
80584;SDS011;70137;56.482;9.154;2024-01-30T08:16:17;115.60;;;38.22;;
80584;SDS011;70137;56.482;9.154;2024-01-30T08:18:43;108.38;;;35.17;;
80584;SDS011;70137;56.482;9.154;2024-01-30T08:21:08;112.00;;;36.72;;
80584;SDS011;70137;56.482;9.154;2024-01-30T08:23:34;112.28;;;36.65;;
80584;SDS011;70137;56.482;9.154;2024-01-30T08:25:59;97.10;;;35.25;;
80584;SDS011;70137;56.482;9.154;2024-01-30T08:28:25;103.80;;;36.25;;
80584;SDS011;70137;56.482;9.154;2024-01-30T08:30:51;101.95;;;36.95;;
80584;SDS011;70137;56.482;9.154;2024-01-30T08:33:16;96.05;;;33.35;;
80584;SDS011;70137;56.482;9.154;2024-01-30T08:35:42;106.80;;;37.95;;
80584;SDS011;70137;56.482;9.154;2024-01-30T08:38:07;88.20;;;33.92;;
80584;SDS011;70137;56.482;9.154;2024-01-30T08:40:32;102.88;;;36.67;;
80584;SDS011;70137;56.482;9.154;2024-01-30T08:42:58;91.13;;;34.72;;
80584;SDS011;70137;56.482;9.154;2024-01-30T08:45:23;95.20;;;36.20;;
80584;SDS011;70137;56.482;9.154;2024-01-30T08:47:49;104.40;;;37.45;;
80584;SDS011;70137;56.482;9.154;2024-01-30T08:50:14;98.43;;;38.78;;
80584;SDS011;70137;56.482;9.154;2024-01-30T08:52:39;89.10;;;36.15;;
80584;SDS011;70137;56.482;9.154;2024-01-30T08:55:05;86.82;;;36.13;;
80584;SDS011;70137;56.482;9.154;2024-01-30T08:57:30;90.75;;;36.42;;
80584;SDS011;70137;56.482;9.154;2024-01-30T08:59:56;101.50;;;37.92;;
80584;SDS011;70137;56.482;9.154;2024-01-30T09:02:21;94.15;;;40.00;;
80584;SDS011;70137;56.482;9.154;2024-01-30T09:04:46;94.10;;;37.22;;
80584;SDS011;70137;56.482;9.154;2024-01-30T09:07:12;80.22;;;34.20;;
80584;SDS011;70137;56.482;9.154;2024-01-30T09:09:38;82.05;;;34.92;;
80584;SDS011;70137;56.482;9.154;2024-01-30T09:12:07;83.85;;;34.67;;
80584;SDS011;70137;56.482;9.154;2024-01-30T09:14:34;85.30;;;37.45;;
80584;SDS011;70137;56.482;9.154;2024-01-30T09:17:00;93.05;;;34.20;;
80584;SDS011;70137;56.482;9.154;2024-01-30T09:19:26;94.28;;;37.90;;
80584;SDS011;70137;56.482;9.154;2024-01-30T09:21:51;87.47;;;36.17;;
80584;SDS011;70137;56.482;9.154;2024-01-30T09:24:17;92.05;;;38.10;;
80584;SDS011;70137;56.482;9.154;2024-01-30T09:26:42;91.82;;;37.15;;
80584;SDS011;70137;56.482;9.154;2024-01-30T09:29:07;89.80;;;38.28;;
80584;SDS011;70137;56.482;9.154;2024-01-30T09:31:33;86.85;;;36.15;;
80584;SDS011;70137;56.482;9.154;2024-01-30T09:33:58;74.45;;;29.25;;
80584;SDS011;70137;56.482;9.154;2024-01-30T09:36:24;87.47;;;37.85;;
80584;SDS011;70137;56.482;9.154;2024-01-30T09:38:49;86.43;;;36.70;;
80584;SDS011;70137;56.482;9.154;2024-01-30T09:41:15;88.25;;;35.00;;
80584;SDS011;70137;56.482;9.154;2024-01-30T09:43:40;80.20;;;36.10;;
80584;SDS011;70137;56.482;9.154;2024-01-30T09:46:13;81.88;;;32.20;;
80584;SDS011;70137;56.482;9.154;2024-01-30T09:48:41;70.32;;;33.00;;
80584;SDS011;70137;56.482;9.154;2024-01-30T09:51:08;82.18;;;35.25;;
80584;SDS011;70137;56.482;9.154;2024-01-30T09:53:34;85.68;;;34.33;;
80584;SDS011;70137;56.482;9.154;2024-01-30T09:56:01;85.78;;;35.67;;
80584;SDS011;70137;56.482;9.154;2024-01-30T09:58:27;68.65;;;28.00;;
80584;SDS011;70137;56.482;9.154;2024-01-30T10:00:53;81.50;;;36.08;;
80584;SDS011;70137;56.482;9.154;2024-01-30T10:03:19;73.53;;;31.63;;
80584;SDS011;70137;56.482;9.154;2024-01-30T10:05:46;77.80;;;34.25;;
80584;SDS011;70137;56.482;9.154;2024-01-30T10:08:19;65.70;;;29.73;;
80584;SDS011;70137;56.482;9.154;2024-01-30T10:10:46;86.32;;;36.15;;
80584;SDS011;70137;56.482;9.154;2024-01-30T10:13:12;83.40;;;35.70;;
80584;SDS011;70137;56.482;9.154;2024-01-30T10:15:37;75.93;;;33.40;;
80584;SDS011;70137;56.482;9.154;2024-01-30T10:18:04;80.10;;;33.42;;
80584;SDS011;70137;56.482;9.154;2024-01-30T10:20:31;83.30;;;37.80;;
80584;SDS011;70137;56.482;9.154;2024-01-30T10:22:57;81.00;;;32.60;;
80584;SDS011;70137;56.482;9.154;2024-01-30T10:25:22;85.55;;;36.88;;
80584;SDS011;70137;56.482;9.154;2024-01-30T10:27:52;77.10;;;32.08;;
80584;SDS011;70137;56.482;9.154;2024-01-30T10:30:23;84.90;;;36.42;;
80584;SDS011;70137;56.482;9.154;2024-01-30T10:32:50;81.40;;;31.45;;
80584;SDS011;70137;56.482;9.154;2024-01-30T10:35:16;80.20;;;37.22;;
80584;SDS011;70137;56.482;9.154;2024-01-30T10:37:46;79.90;;;35.38;;
80584;SDS011;70137;56.482;9.154;2024-01-30T10:40:13;82.28;;;35.92;;
80584;SDS011;70137;56.482;9.154;2024-01-30T10:42:41;85.53;;;37.75;;
80584;SDS011;70137;56.482;9.154;2024-01-30T10:45:08;76.22;;;36.00;;
80584;SDS011;70137;56.482;9.154;2024-01-30T10:47:37;74.53;;;30.13;;
80584;SDS011;70137;56.482;9.154;2024-01-30T10:50:05;80.57;;;35.20;;
80584;SDS011;70137;56.482;9.154;2024-01-30T10:52:31;85.93;;;40.42;;
80584;SDS011;70137;56.482;9.154;2024-01-30T10:54:57;81.15;;;36.67;;
80584;SDS011;70137;56.482;9.154;2024-01-30T10:57:23;74.07;;;35.40;;
80584;SDS011;70137;56.482;9.154;2024-01-30T10:59:50;81.80;;;39.70;;
80584;SDS011;70137;56.482;9.154;2024-01-30T11:02:17;82.00;;;39.28;;
80584;SDS011;70137;56.482;9.154;2024-01-30T11:04:45;89.90;;;40.20;;
80584;SDS011;70137;56.482;9.154;2024-01-30T11:07:14;85.65;;;37.20;;
80584;SDS011;70137;56.482;9.154;2024-01-30T11:09:47;84.97;;;38.40;;
80584;SDS011;70137;56.482;9.154;2024-01-30T11:12:14;86.85;;;39.58;;
80584;SDS011;70137;56.482;9.154;2024-01-30T11:14:39;89.05;;;40.40;;
80584;SDS011;70137;56.482;9.154;2024-01-30T11:17:05;83.13;;;38.50;;
80584;SDS011;70137;56.482;9.154;2024-01-30T11:19:31;76.22;;;36.33;;
80584;SDS011;70137;56.482;9.154;2024-01-30T11:21:57;84.03;;;38.50;;
80584;SDS011;70137;56.482;9.154;2024-01-30T11:24:22;80.80;;;38.35;;
80584;SDS011;70137;56.482;9.154;2024-01-30T11:26:49;75.15;;;37.28;;
80584;SDS011;70137;56.482;9.154;2024-01-30T11:29:16;73.50;;;33.67;;
80584;SDS011;70137;56.482;9.154;2024-01-30T11:31:51;74.07;;;35.28;;
80584;SDS011;70137;56.482;9.154;2024-01-30T11:34:18;73.20;;;34.13;;
80584;SDS011;70137;56.482;9.154;2024-01-30T11:36:45;61.42;;;30.15;;
80584;SDS011;70137;56.482;9.154;2024-01-30T11:39:18;71.30;;;34.80;;
80584;SDS011;70137;56.482;9.154;2024-01-30T11:41:45;74.63;;;35.50;;
80584;SDS011;70137;56.482;9.154;2024-01-30T11:44:11;64.03;;;31.40;;
80584;SDS011;70137;56.482;9.154;2024-01-30T11:46:36;57.88;;;30.55;;
80584;SDS011;70137;56.482;9.154;2024-01-30T11:49:01;66.05;;;34.15;;
80584;SDS011;70137;56.482;9.154;2024-01-30T11:51:27;61.78;;;30.25;;
80584;SDS011;70137;56.482;9.154;2024-01-30T11:53:56;63.30;;;30.83;;
80584;SDS011;70137;56.482;9.154;2024-01-30T11:56:23;67.13;;;34.67;;
80584;SDS011;70137;56.482;9.154;2024-01-30T11:58:50;60.55;;;29.58;;
80584;SDS011;70137;56.482;9.154;2024-01-30T12:01:17;66.20;;;34.03;;
80584;SDS011;70137;56.482;9.154;2024-01-30T12:03:42;66.75;;;34.90;;
80584;SDS011;70137;56.482;9.154;2024-01-30T12:06:15;67.18;;;32.50;;
80584;SDS011;70137;56.482;9.154;2024-01-30T12:08:41;62.70;;;34.35;;
80584;SDS011;70137;56.482;9.154;2024-01-30T12:11:06;61.63;;;30.85;;
80584;SDS011;70137;56.482;9.154;2024-01-30T12:13:32;66.85;;;34.90;;
80584;SDS011;70137;56.482;9.154;2024-01-30T12:15:58;62.33;;;33.35;;
80584;SDS011;70137;56.482;9.154;2024-01-30T12:18:24;57.40;;;31.45;;
80584;SDS011;70137;56.482;9.154;2024-01-30T12:20:59;60.38;;;32.88;;
80584;SDS011;70137;56.482;9.154;2024-01-30T12:23:25;65.22;;;34.38;;
80584;SDS011;70137;56.482;9.154;2024-01-30T12:25:52;66.03;;;34.72;;
80584;SDS011;70137;56.482;9.154;2024-01-30T12:28:18;62.80;;;31.75;;
80584;SDS011;70137;56.482;9.154;2024-01-30T12:30:44;64.43;;;33.75;;
80584;SDS011;70137;56.482;9.154;2024-01-30T12:33:09;62.08;;;31.20;;
80584;SDS011;70137;56.482;9.154;2024-01-30T12:35:45;63.42;;;31.65;;
80584;SDS011;70137;56.482;9.154;2024-01-30T12:38:11;63.17;;;32.42;;
80584;SDS011;70137;56.482;9.154;2024-01-30T12:40:36;65.45;;;34.92;;
80584;SDS011;70137;56.482;9.154;2024-01-30T12:43:01;65.10;;;34.35;;
80584;SDS011;70137;56.482;9.154;2024-01-30T12:45:28;71.28;;;34.90;;
80584;SDS011;70137;56.482;9.154;2024-01-30T12:47:53;70.32;;;35.45;;
80584;SDS011;70137;56.482;9.154;2024-01-30T12:50:19;64.97;;;32.13;;
80584;SDS011;70137;56.482;9.154;2024-01-30T12:52:44;61.65;;;32.40;;
80584;SDS011;70137;56.482;9.154;2024-01-30T12:55:10;63.28;;;33.92;;
80584;SDS011;70137;56.482;9.154;2024-01-30T12:57:35;59.03;;;31.92;;
80584;SDS011;70137;56.482;9.154;2024-01-30T13:00:01;59.00;;;32.42;;
80584;SDS011;70137;56.482;9.154;2024-01-30T13:02:26;55.80;;;29.85;;
80584;SDS011;70137;56.482;9.154;2024-01-30T13:04:59;55.15;;;28.50;;
80584;SDS011;70137;56.482;9.154;2024-01-30T13:07:25;60.00;;;33.72;;
80584;SDS011;70137;56.482;9.154;2024-01-30T13:09:50;59.83;;;31.08;;
80584;SDS011;70137;56.482;9.154;2024-01-30T13:12:16;59.75;;;30.02;;
80584;SDS011;70137;56.482;9.154;2024-01-30T13:14:41;55.78;;;29.50;;
80584;SDS011;70137;56.482;9.154;2024-01-30T13:17:07;59.80;;;30.05;;
80584;SDS011;70137;56.482;9.154;2024-01-30T13:19:33;48.78;;;25.95;;
80584;SDS011;70137;56.482;9.154;2024-01-30T13:21:58;53.40;;;27.08;;
80584;SDS011;70137;56.482;9.154;2024-01-30T13:24:23;60.08;;;28.77;;
80584;SDS011;70137;56.482;9.154;2024-01-30T13:26:49;55.42;;;28.85;;
80584;SDS011;70137;56.482;9.154;2024-01-30T13:29:14;52.45;;;27.88;;
80584;SDS011;70137;56.482;9.154;2024-01-30T13:31:40;43.53;;;23.42;;
80584;SDS011;70137;56.482;9.154;2024-01-30T13:34:06;38.75;;;21.92;;
80584;SDS011;70137;56.482;9.154;2024-01-30T13:36:32;44.83;;;25.13;;
80584;SDS011;70137;56.482;9.154;2024-01-30T13:38:57;42.45;;;24.98;;
80584;SDS011;70137;56.482;9.154;2024-01-30T13:41:23;49.42;;;24.38;;
80584;SDS011;70137;56.482;9.154;2024-01-30T13:43:48;45.33;;;24.50;;
80584;SDS011;70137;56.482;9.154;2024-01-30T13:46:14;46.58;;;25.00;;
80584;SDS011;70137;56.482;9.154;2024-01-30T13:48:40;47.20;;;22.80;;
80584;SDS011;70137;56.482;9.154;2024-01-30T13:51:05;49.00;;;24.92;;
80584;SDS011;70137;56.482;9.154;2024-01-30T13:53:31;48.60;;;23.45;;
80584;SDS011;70137;56.482;9.154;2024-01-30T13:55:56;48.42;;;25.60;;
80584;SDS011;70137;56.482;9.154;2024-01-30T13:58:22;45.30;;;25.15;;
80584;SDS011;70137;56.482;9.154;2024-01-30T14:00:47;50.17;;;26.10;;
80584;SDS011;70137;56.482;9.154;2024-01-30T14:03:12;44.60;;;23.55;;
80584;SDS011;70137;56.482;9.154;2024-01-30T14:05:38;52.80;;;24.98;;
80584;SDS011;70137;56.482;9.154;2024-01-30T14:08:03;53.88;;;26.02;;
80584;SDS011;70137;56.482;9.154;2024-01-30T14:10:29;48.83;;;24.83;;